Time;durP1;ratioP1;P1;durP2;ratioP2;P2;SDS_P1;SDS_P2;PMS_P1;PMS_P2;Temp;Humidity;BMP_temperature;BMP_pressure;BME280_temperature;BME280_humidity;BME280_pressure;Samples;Min_cycle;Max_cycle;Signal;HPM_P1;HPM_P2
2023/10/29 00:00:39;;;;;;;5.22;3.58;;;11.10;99.90;;;;;;5032094;28;20151;-92
2023/10/29 00:03:06;;;;;;;4.53;3.50;;;11.00;99.90;;;;;;5034670;28;20133;-91
2023/10/29 00:05:36;;;;;;;5.22;4.07;;;11.00;99.90;;;;;;5003906;28;20038;-91
2023/10/29 00:08:08;;;;;;;3.80;3.50;;;11.00;99.90;;;;;;5015860;28;20068;-91
2023/10/29 00:10:34;;;;;;;6.07;4.00;;;11.00;99.90;;;;;;5015010;28;20489;-92
2023/10/29 00:13:01;;;;;;;4.47;4.05;;;11.00;99.90;;;;;;5032556;28;20081;-92
2023/10/29 00:15:29;;;;;;;4.35;3.92;;;11.00;99.90;;;;;;5015119;28;20065;-90
2023/10/29 00:17:54;;;;;;;8.05;4.72;;;11.00;99.90;;;;;;5033133;28;20581;-90
2023/10/29 00:20:22;;;;;;;5.40;4.00;;;11.00;99.90;;;;;;5021869;28;20048;-90
2023/10/29 00:22:48;;;;;;;7.00;4.40;;;11.10;99.90;;;;;;5009828;28;20072;-89
2023/10/29 00:25:13;;;;;;;4.93;3.88;;;11.10;99.90;;;;;;5032647;28;20355;-91
2023/10/29 00:27:46;;;;;;;4.70;4.20;;;11.10;99.90;;;;;;5016158;28;20092;-91
2023/10/29 00:30:13;;;;;;;;;;;11.00;99.90;;;;;;5012633;28;20511;-91
2023/10/29 00:32:39;;;;;;;4.38;3.80;;;11.00;99.90;;;;;;5010328;28;19921;-91
2023/10/29 00:35:05;;;;;;;5.80;4.65;;;11.10;99.90;;;;;;5031919;28;20073;-90
2023/10/29 00:37:32;;;;;;;4.72;4.00;;;11.10;99.90;;;;;;5032192;28;20041;-91
2023/10/29 00:39:58;;;;;;;3.80;3.45;;;11.10;99.90;;;;;;5032590;28;20080;-90
2023/10/29 00:42:24;;;;;;;6.82;4.20;;;11.10;99.90;;;;;;5020217;28;20419;-89
2023/10/29 00:44:51;;;;;;;4.95;3.45;;;11.10;99.90;;;;;;5036582;28;20042;-91
2023/10/29 00:47:17;;;;;;;4.45;3.45;;;11.20;99.90;;;;;;5020305;28;20503;-91
2023/10/29 00:49:43;;;;;;;6.85;3.60;;;11.20;99.90;;;;;;5036301;28;20111;-90
2023/10/29 00:52:09;;;;;;;4.90;3.70;;;11.30;99.90;;;;;;5019877;28;20038;-89
2023/10/29 00:54:34;;;;;;;3.72;3.30;;;11.30;99.90;;;;;;5017481;28;20053;-89
2023/10/29 00:57:01;;;;;;;4.38;3.63;;;11.30;99.90;;;;;;5036834;28;20099;-90
2023/10/29 00:59:30;;;;;;;4.80;3.25;;;11.40;99.90;;;;;;5036066;28;20072;-90
2023/10/29 01:01:56;;;;;;;5.38;3.40;;;11.40;99.90;;;;;;5019593;28;20545;-90
2023/10/29 01:04:22;;;;;;;6.28;3.53;;;11.40;99.90;;;;;;5017376;28;20042;-89
2023/10/29 01:06:48;;;;;;;3.65;3.22;;;11.40;99.90;;;;;;5035297;28;20633;-91
2023/10/29 01:09:14;;;;;;;3.85;3.42;;;11.40;99.90;;;;;;5035563;28;20082;-89
2023/10/29 01:11:40;;;;;;;3.42;3.13;;;11.40;99.90;;;;;;5034548;28;20128;-88
2023/10/29 01:14:10;;;;;;;4.13;3.03;;;11.50;99.90;;;;;;5035370;28;20180;-88
2023/10/29 01:16:35;;;;;;;4.20;3.28;;;11.50;99.90;;;;;;5034752;28;20049;-89
2023/10/29 01:19:01;;;;;;;4.60;3.58;;;11.50;99.90;;;;;;5034675;28;20065;-90
2023/10/29 01:21:29;;;;;;;4.90;3.30;;;11.50;99.90;;;;;;5034369;28;20593;-89
2023/10/29 01:23:55;;;;;;;5.15;3.70;;;11.60;99.90;;;;;;5030065;28;20144;-89
2023/10/29 01:26:22;;;;;;;6.07;3.50;;;11.60;99.90;;;;;;5033689;28;20052;-91
2023/10/29 01:28:51;;;;;;;3.90;3.50;;;11.60;99.90;;;;;;5035151;28;20534;-88
2023/10/29 01:31:17;;;;;;;5.25;3.67;;;11.60;99.90;;;;;;5019259;28;20042;-90
2023/10/29 01:33:45;;;;;;;4.00;3.60;;;11.70;99.90;;;;;;5034671;28;20128;-89
2023/10/29 01:36:11;;;;;;;5.70;3.67;;;11.70;99.90;;;;;;5015257;28;20045;-89
2023/10/29 01:38:36;;;;;;;5.55;3.58;;;11.70;99.90;;;;;;5000541;28;20045;-89
2023/10/29 01:41:02;;;;;;;4.72;3.63;;;11.60;99.90;;;;;;5023803;28;20073;-89
2023/10/29 01:43:28;;;;;;;4.93;3.30;;;11.70;99.90;;;;;;5011792;28;20061;-87
2023/10/29 01:45:54;;;;;;;4.28;3.40;;;11.70;99.90;;;;;;5017968;28;20049;-89
2023/10/29 01:48:23;;;;;;;5.93;3.67;;;11.70;99.90;;;;;;5019790;28;20069;-88
2023/10/29 01:50:50;;;;;;;4.57;3.05;;;11.80;99.90;;;;;;5018465;28;20099;-88
2023/10/29 01:53:16;;;;;;;5.70;3.50;;;11.80;99.90;;;;;;5016518;28;20406;-89
2023/10/29 01:55:41;;;;;;;5.30;3.20;;;11.80;99.90;;;;;;5017011;28;20049;-89
2023/10/29 01:58:07;;;;;;;6.82;2.88;;;12.00;99.90;;;;;;5033455;28;20196;-90
2023/10/29 02:00:33;;;;;;;4.35;2.90;;;11.80;99.90;;;;;;5015267;28;20046;-89
2023/10/29 02:02:59;;;;;;;4.75;2.60;;;12.10;99.90;;;;;;5014993;28;20124;-88
2023/10/29 02:05:25;;;;;;;3.17;2.30;;;11.90;99.90;;;;;;5010298;28;20408;-87
2023/10/29 02:07:51;;;;;;;3.67;2.55;;;11.90;99.90;;;;;;5028402;28;20048;-88
2023/10/29 02:10:18;;;;;;;2.85;2.55;;;11.90;99.90;;;;;;5031690;28;20049;-88
2023/10/29 02:12:43;;;;;;;4.47;2.63;;;11.90;99.90;;;;;;5030929;28;20052;-88
2023/10/29 02:15:11;;;;;;;3.65;2.75;;;11.90;99.90;;;;;;5027643;28;20406;-87
2023/10/29 02:17:37;;;;;;;4.43;2.08;;;11.90;99.90;;;;;;5028479;28;20463;-88
2023/10/29 02:20:05;;;;;;;2.92;2.42;;;11.90;99.90;;;;;;5015120;28;20033;-90
2023/10/29 02:22:31;;;;;;;5.00;2.30;;;11.90;99.90;;;;;;5029180;28;20630;-89
2023/10/29 02:24:56;;;;;;;4.38;2.17;;;12.00;99.90;;;;;;5015567;28;20042;-88
2023/10/29 02:27:25;;;;;;;3.90;2.15;;;11.90;99.90;;;;;;5013580;28;20042;-88
2023/10/29 02:29:54;;;;;;;3.63;1.90;;;12.30;99.90;;;;;;5006407;28;20377;-88
2023/10/29 02:32:19;;;;;;;3.72;2.17;;;11.90;99.90;;;;;;5028941;28;20788;-89
2023/10/29 02:34:45;;;;;;;3.05;1.90;;;11.90;99.90;;;;;;5031028;28;20133;-88
2023/10/29 02:37:10;;;;;;;2.65;1.98;;;12.40;99.90;;;;;;5024728;28;20041;-90
2023/10/29 02:39:36;;;;;;;2.53;2.00;;;11.90;99.90;;;;;;5016427;28;20052;-91
2023/10/29 02:42:02;;;;;;;2.60;2.03;;;11.90;99.90;;;;;;5027093;28;20044;-90
2023/10/29 02:44:28;;;;;;;3.40;2.00;;;11.90;99.90;;;;;;5031793;28;20049;-89
2023/10/29 02:46:54;;;;;;;3.95;1.92;;;11.90;99.90;;;;;;5032226;28;20053;-90
2023/10/29 02:49:22;;;;;;;2.65;1.88;;;11.90;99.90;;;;;;5013093;28;20060;-89
2023/10/29 02:51:47;;;;;;;2.60;2.00;;;11.90;99.90;;;;;;5031778;28;20046;-89
2023/10/29 02:54:13;;;;;;;3.42;2.10;;;12.00;99.90;;;;;;5030470;28;20536;-88
2023/10/29 02:56:41;;;;;;;2.38;1.95;;;11.90;99.90;;;;;;5014561;28;20057;-91
2023/10/29 02:59:09;;;;;;;3.50;1.70;;;12.00;99.90;;;;;;5031881;28;20325;-88
2023/10/29 03:01:35;;;;;;;2.60;2.00;;;12.00;99.90;;;;;;5030577;28;20049;-89
2023/10/29 03:04:02;;;;;;;2.72;2.15;;;12.00;99.90;;;;;;5014665;28;20124;-89
2023/10/29 03:06:30;;;;;;;2.47;1.88;;;11.90;99.90;;;;;;5013891;28;20038;-89
2023/10/29 03:08:55;;;;;;;4.72;1.98;;;11.90;99.90;;;;;;5014282;28;20049;-88
2023/10/29 03:11:22;;;;;;;2.35;2.08;;;11.90;99.90;;;;;;5030297;28;20132;-88
2023/10/29 03:13:47;;;;;;;2.92;1.88;;;12.30;99.90;;;;;;5031055;28;20054;-89
2023/10/29 03:16:13;;;;;;;3.17;1.70;;;12.00;99.90;;;;;;5009862;28;20045;-89
2023/10/29 03:18:39;;;;;;;4.25;2.00;;;12.20;99.90;;;;;;5002612;28;20488;-89
2023/10/29 03:21:04;;;;;;;3.20;1.83;;;12.10;99.90;;;;;;5031673;28;20069;-88
2023/10/29 03:23:30;;;;;;;2.92;1.85;;;12.10;99.90;;;;;;5012552;28;20050;-88
2023/10/29 03:26:02;;;;;;;5.30;2.10;;;12.10;99.90;;;;;;5012041;28;20037;-90
2023/10/29 03:28:29;;;;;;;4.30;1.75;;;12.10;99.90;;;;;;5031015;28;20937;-90
2023/10/29 03:30:55;;;;;;;3.53;1.75;;;12.10;99.90;;;;;;5014807;28;20041;-90
2023/10/29 03:33:21;;;;;;;3.50;1.60;;;12.10;99.90;;;;;;5030890;28;20037;-90
2023/10/29 03:35:51;;;;;;;2.35;1.75;;;12.20;99.90;;;;;;5031296;28;20049;-90
2023/10/29 03:38:17;;;;;;;3.97;1.73;;;12.30;99.90;;;;;;5011155;28;20116;-89
2023/10/29 03:40:44;;;;;;;3.35;1.63;;;12.20;99.90;;;;;;5042923;28;20560;-90
2023/10/29 03:43:09;;;;;;;3.80;1.60;;;12.20;99.90;;;;;;5029719;28;20044;-91
2023/10/29 03:45:35;;;;;;;1.85;1.40;;;12.20;99.90;;;;;;5023567;28;20042;-89
2023/10/29 03:48:01;;;;;;;3.17;1.58;;;12.50;99.90;;;;;;5009012;28;20061;-91
2023/10/29 03:50:27;;;;;;;3.88;1.58;;;12.20;99.90;;;;;;5013649;28;20052;-89
2023/10/29 03:52:56;;;;;;;4.40;1.60;;;12.20;99.90;;;;;;5028722;28;20041;-91
2023/10/29 03:55:22;;;;;;;1.75;1.38;;;12.30;99.90;;;;;;5012755;28;20102;-88
2023/10/29 03:57:51;;;;;;;3.78;1.40;;;12.30;99.90;;;;;;5020465;28;20132;-88
2023/10/29 04:00:18;;;;;;;1.98;1.58;;;12.80;99.90;;;;;;5014685;28;20041;-89
2023/10/29 04:02:49;;;;;;;3.55;1.60;;;12.30;99.90;;;;;;5031623;28;20096;-90
2023/10/29 04:05:16;;;;;;;2.30;1.55;;;12.30;99.90;;;;;;5015270;28;20131;-89
2023/10/29 04:07:44;;;;;;;3.90;1.70;;;13.00;99.90;;;;;;5030424;28;20082;-90
2023/10/29 04:10:14;;;;;;;2.08;1.42;;;12.30;99.90;;;;;;5031680;28;20052;-91
2023/10/29 04:12:40;;;;;;;2.33;1.65;;;12.40;99.90;;;;;;5013305;28;20041;-90
2023/10/29 04:15:06;;;;;;;3.30;1.20;;;12.40;99.90;;;;;;5012237;28;20034;-89
2023/10/29 04:17:34;;;;;;;3.50;1.33;;;12.40;99.90;;;;;;5029676;28;20045;-90
2023/10/29 04:20:00;;;;;;;3.20;1.40;;;13.20;99.90;;;;;;5009417;28;20045;-88
2023/10/29 04:22:27;;;;;;;2.70;1.33;;;12.50;99.90;;;;;;5027454;28;20064;-90
2023/10/29 04:24:53;;;;;;;3.88;1.45;;;12.50;99.90;;;;;;5014952;28;20151;-90
2023/10/29 04:27:19;;;;;;;4.18;1.42;;;12.50;99.90;;;;;;5010676;28;20057;-89
2023/10/29 04:29:45;;;;;;;3.75;1.60;;;12.50;99.90;;;;;;5014963;28;20124;-89
2023/10/29 04:32:12;;;;;;;3.30;1.58;;;12.40;99.90;;;;;;5030562;28;20121;-89
2023/10/29 04:34:37;;;;;;;1.73;1.10;;;12.40;99.90;;;;;;5030172;28;20076;-87
2023/10/29 04:37:08;;;;;;;1.52;1.10;;;12.40;99.90;;;;;;5027996;28;20507;-90
2023/10/29 04:39:34;;;;;;;2.75;1.10;;;12.40;99.90;;;;;;5025409;28;20064;-89
2023/10/29 04:42:01;;;;;;;2.40;1.00;;;12.40;99.90;;;;;;5014774;28;20122;-90
2023/10/29 04:44:27;;;;;;;2.67;1.52;;;12.50;99.90;;;;;;5028933;28;20132;-89
2023/10/29 04:46:53;;;;;;;5.13;1.25;;;12.50;99.90;;;;;;5022743;28;20049;-89
2023/10/29 04:49:21;;;;;;;3.15;0.98;;;12.50;99.90;;;;;;5012453;28;20048;-90
2023/10/29 04:51:48;;;;;;;3.67;1.10;;;12.50;99.90;;;;;;5028193;28;20045;-91
2023/10/29 04:54:13;;;;;;;4.63;1.33;;;12.50;99.90;;;;;;5013512;28;20053;-90
2023/10/29 04:56:41;;;;;;;4.97;1.20;;;12.50;99.90;;;;;;5029007;28;20041;-90
2023/10/29 04:59:09;;;;;;;1.17;1.00;;;12.50;99.90;;;;;;5004044;28;20045;-89
2023/10/29 05:01:34;;;;;;;1.77;0.80;;;12.40;99.90;;;;;;5025223;28;20076;-88
2023/10/29 05:04:07;;;;;;;2.10;1.17;;;12.40;99.90;;;;;;4994445;28;20088;-89
2023/10/29 05:06:34;;;;;;;1.67;0.85;;;12.40;99.90;;;;;;5029448;28;20052;-88
2023/10/29 05:09:02;;;;;;;2.72;1.13;;;12.40;99.90;;;;;;5028348;28;20472;-88
2023/10/29 05:11:28;;;;;;;1.98;1.00;;;12.50;99.90;;;;;;5027597;28;20045;-88
2023/10/29 05:13:54;;;;;;;1.33;1.00;;;12.50;99.90;;;;;;5025890;28;20579;-88
2023/10/29 05:16:20;;;;;;;1.75;0.90;;;12.40;99.90;;;;;;5029222;28;20111;-88
2023/10/29 05:18:49;;;;;;;3.08;0.90;;;12.40;99.90;;;;;;5034035;28;20045;-89
2023/10/29 05:21:14;;;;;;;6.85;1.35;;;12.30;99.90;;;;;;5022640;28;20072;-89
2023/10/29 05:23:40;;;;;;;2.45;0.90;;;12.40;99.90;;;;;;5029334;28;20495;-86
2023/10/29 05:26:10;;;;;;;4.40;0.85;;;12.40;99.90;;;;;;5030009;28;20095;-89
2023/10/29 05:28:36;;;;;;;4.68;1.00;;;12.40;99.90;;;;;;5016978;28;20049;-88
2023/10/29 05:31:02;;;;;;;1.27;0.70;;;12.50;99.90;;;;;;5007066;28;20041;-88
2023/10/29 05:33:28;;;;;;;1.75;0.80;;;12.40;99.90;;;;;;5026805;28;20056;-87
2023/10/29 05:35:54;;;;;;;2.97;1.08;;;12.40;99.90;;;;;;5030396;28;20057;-89
2023/10/29 05:38:20;;;;;;;1.30;1.00;;;12.40;99.90;;;;;;5004836;28;20045;-88
2023/10/29 05:40:48;;;;;;;2.88;1.05;;;12.40;99.90;;;;;;5034514;28;20091;-90
2023/10/29 05:43:22;;;;;;;2.58;0.80;;;12.40;99.90;;;;;;5033239;28;20057;-91
2023/10/29 05:45:50;;;;;;;1.75;0.77;;;12.40;99.90;;;;;;5018423;28;20485;-88
2023/10/29 05:48:16;;;;;;;1.77;1.10;;;12.80;99.90;;;;;;5031991;28;20085;-91
2023/10/29 05:50:42;;;;;;;2.28;0.93;;;12.50;99.90;;;;;;5014293;28;20078;-89
2023/10/29 05:53:08;;;;;;;2.60;1.00;;;12.50;99.90;;;;;;5034378;28;20048;-89
2023/10/29 05:55:42;;;;;;;0.80;0.80;;;12.50;99.90;;;;;;5032674;28;20050;-93
2023/10/29 05:58:08;;;;;;;1.00;0.80;;;12.50;99.90;;;;;;5027001;28;20050;-90
2023/10/29 06:00:34;;;;;;;2.08;0.90;;;12.50;99.90;;;;;;5037989;28;20041;-92
2023/10/29 06:02:59;;;;;;;1.88;0.70;;;12.40;99.90;;;;;;5016217;28;20052;-90
2023/10/29 06:05:26;;;;;;;1.88;0.95;;;12.60;99.90;;;;;;5032009;28;20407;-90
2023/10/29 06:07:52;;;;;;;1.42;0.80;;;12.50;99.90;;;;;;5031083;28;20046;-89
2023/10/29 06:10:17;;;;;;;2.35;1.45;;;12.60;99.90;;;;;;5033359;28;20052;-89
2023/10/29 06:12:45;;;;;;;3.35;1.00;;;12.70;99.90;;;;;;5023625;28;20049;-91
2023/10/29 06:15:11;;;;;;;2.75;1.00;;;12.70;99.90;;;;;;5026567;28;20045;-85
2023/10/29 06:17:37;;;;;;;1.92;0.90;;;12.70;99.90;;;;;;5027693;28;20639;-84
2023/10/29 06:20:04;;;;;;;1.52;0.90;;;12.70;99.90;;;;;;5028359;28;20056;-84
2023/10/29 06:22:31;;;;;;;2.72;0.80;;;12.60;99.90;;;;;;5044427;28;20060;-85
2023/10/29 06:24:57;;;;;;;2.42;0.82;;;12.60;99.90;;;;;;5020684;28;20559;-84
2023/10/29 06:27:22;;;;;;;1.58;0.77;;;12.60;99.90;;;;;;5031066;28;20045;-85
2023/10/29 06:29:51;;;;;;;3.17;1.30;;;12.60;99.90;;;;;;5048546;28;20356;-85
2023/10/29 06:32:16;;;;;;;1.13;0.82;;;12.30;99.90;;;;;;5031552;28;20140;-85
2023/10/29 06:34:42;;;;;;;3.25;1.08;;;12.60;99.90;;;;;;5030155;28;20151;-84
2023/10/29 06:37:07;;;;;;;3.15;0.90;;;12.70;99.90;;;;;;5030629;28;20415;-86
2023/10/29 06:39:33;;;;;;;2.08;0.77;;;12.70;99.90;;;;;;5030243;28;20486;-85
2023/10/29 06:41:59;;;;;;;2.42;0.88;;;13.10;99.90;;;;;;5015661;28;20039;-87
2023/10/29 06:44:24;;;;;;;1.48;0.80;;;12.80;99.90;;;;;;5038154;28;20048;-87
2023/10/29 06:46:51;;;;;;;2.40;0.90;;;12.80;99.90;;;;;;5025426;28;20071;-86
2023/10/29 06:49:16;;;;;;;1.65;0.80;;;12.80;99.90;;;;;;5039341;28;20044;-87
2023/10/29 06:51:42;;;;;;;2.58;0.80;;;12.70;99.90;;;;;;5015019;28;20105;-86
2023/10/29 06:54:08;;;;;;;2.55;0.90;;;12.80;99.90;;;;;;5033845;28;20068;-87
2023/10/29 06:56:33;;;;;;;2.58;0.80;;;13.40;99.90;;;;;;5028665;28;20080;-86
2023/10/29 06:58:59;;;;;;;2.22;0.85;;;12.80;99.90;;;;;;5027838;28;20037;-87
2023/10/29 07:01:24;;;;;;;3.42;0.80;;;12.80;99.90;;;;;;5026367;28;20124;-86
2023/10/29 07:03:50;;;;;;;1.85;0.77;;;12.80;99.90;;;;;;5027878;28;20121;-85
2023/10/29 07:06:16;;;;;;;2.42;0.88;;;12.80;99.90;;;;;;5033840;28;20041;-86
2023/10/29 07:08:45;;;;;;;2.58;1.20;;;12.80;99.90;;;;;;5033049;28;20103;-86
2023/10/29 07:11:11;;;;;;;3.35;0.88;;;12.80;99.90;;;;;;5032717;28;20049;-86
2023/10/29 07:13:37;;;;;;;3.33;0.95;;;12.70;99.90;;;;;;5034253;28;20049;-88
2023/10/29 07:16:04;;;;;;;4.47;0.70;;;12.80;99.90;;;;;;5035994;28;20056;-85
2023/10/29 07:18:30;;;;;;;4.07;0.85;;;12.70;99.90;;;;;;5023072;28;20567;-86
2023/10/29 07:20:56;;;;;;;4.75;1.00;;;12.70;99.90;;;;;;5026538;28;20155;-86
2023/10/29 07:23:22;;;;;;;1.80;0.75;;;12.80;99.90;;;;;;5033431;28;20048;-89
2023/10/29 07:25:49;;;;;;;2.10;0.80;;;12.60;99.90;;;;;;5030702;28;20044;-85
2023/10/29 07:28:15;;;;;;;4.28;0.90;;;12.60;99.90;;;;;;5005914;28;20041;-88
2023/10/29 07:30:41;;;;;;;2.53;0.80;;;12.70;99.90;;;;;;5012579;28;20049;-88
2023/10/29 07:33:10;;;;;;;2.10;0.90;;;12.80;99.90;;;;;;4994955;28;20076;-87
2023/10/29 07:35:37;;;;;;;2.80;0.90;;;12.90;99.90;;;;;;5029793;28;20121;-88
2023/10/29 07:38:05;;;;;;;2.45;0.77;;;13.00;99.90;;;;;;5042391;28;20959;-88
2023/10/29 07:40:30;;;;;;;2.53;1.20;;;13.00;99.90;;;;;;5031917;28;20262;-87
2023/10/29 07:42:57;;;;;;;5.38;0.95;;;13.10;99.90;;;;;;5030642;28;20102;-88
2023/10/29 07:45:23;;;;;;;3.85;1.42;;;13.20;99.90;;;;;;5031764;28;20033;-87
2023/10/29 07:47:49;;;;;;;1.77;0.73;;;13.20;99.90;;;;;;5031065;28;20056;-88
2023/10/29 07:50:16;;;;;;;3.92;0.98;;;13.30;99.90;;;;;;5032141;28;20110;-90
2023/10/29 07:52:42;;;;;;;3.03;0.90;;;13.50;99.90;;;;;;5014125;28;20517;-86
2023/10/29 07:55:10;;;;;;;4.82;1.40;;;13.30;99.90;;;;;;5018948;28;20045;-87
2023/10/29 07:57:38;;;;;;;2.97;1.05;;;13.30;99.90;;;;;;5011355;28;20049;-86
2023/10/29 08:00:11;;;;;;;3.50;0.80;;;13.30;99.90;;;;;;5031813;28;20103;-87
2023/10/29 08:02:37;;;;;;;3.58;1.27;;;13.40;99.90;;;;;;5032865;28;20101;-88
2023/10/29 08:05:02;;;;;;;2.83;0.93;;;13.40;99.90;;;;;;5024675;28;20709;-87
2023/10/29 08:07:29;;;;;;;2.30;1.35;;;13.40;99.90;;;;;;5005850;28;20123;-88
2023/10/29 08:09:56;;;;;;;2.42;0.80;;;13.40;99.90;;;;;;5030982;28;20158;-88
2023/10/29 08:12:23;;;;;;;6.88;1.00;;;13.40;99.90;;;;;;5017947;28;20351;-88
2023/10/29 08:14:49;;;;;;;5.03;1.20;;;13.40;99.90;;;;;;5031114;28;20037;-88
2023/10/29 08:17:17;;;;;;;3.45;1.00;;;13.30;99.90;;;;;;5031514;28;20513;-88
2023/10/29 08:19:46;;;;;;;2.17;0.88;;;13.30;99.90;;;;;;5030689;28;20106;-87
2023/10/29 08:22:13;;;;;;;3.38;1.10;;;13.30;99.90;;;;;;5022850;28;20400;-87
2023/10/29 08:24:40;;;;;;;1.83;0.80;;;13.30;99.90;;;;;;5029410;28;20045;-87
2023/10/29 08:27:06;;;;;;;2.92;0.90;;;13.70;99.90;;;;;;5030850;28;20459;-86
2023/10/29 08:29:35;;;;;;;6.05;1.13;;;13.30;99.90;;;;;;5031984;28;20084;-87
2023/10/29 08:32:01;;;;;;;3.35;1.00;;;13.80;99.90;;;;;;5031211;28;20040;-87
2023/10/29 08:34:27;;;;;;;2.95;0.70;;;13.30;99.90;;;;;;5012637;28;20052;-87
2023/10/29 08:36:54;;;;;;;3.15;1.10;;;13.30;99.90;;;;;;5030194;28;20048;-87
2023/10/29 08:39:21;;;;;;;3.47;0.90;;;13.30;99.90;;;;;;5030858;28;20049;-86
2023/10/29 08:41:49;;;;;;;3.65;1.33;;;13.40;99.90;;;;;;5030273;28;20053;-86
2023/10/29 08:44:14;;;;;;;3.40;0.90;;;13.40;99.90;;;;;;5012676;28;20415;-87
2023/10/29 08:46:43;;;;;;;4.45;1.15;;;13.40;99.90;;;;;;5019601;28;20045;-86
2023/10/29 08:49:08;;;;;;;2.10;0.90;;;13.40;99.90;;;;;;5030718;28;20098;-86
2023/10/29 08:51:37;;;;;;;2.90;0.80;;;13.50;99.90;;;;;;5029508;28;20049;-87
2023/10/29 08:54:03;;;;;;;2.85;0.80;;;13.40;99.90;;;;;;5028552;28;20071;-87
2023/10/29 08:56:33;;;;;;;5.22;1.10;;;13.60;99.90;;;;;;5013733;28;20595;-87
2023/10/29 08:59:01;;;;;;;2.33;0.70;;;13.70;99.90;;;;;;5030826;28;20049;-87
2023/10/29 09:01:27;;;;;;;3.22;1.17;;;13.80;99.90;;;;;;5032514;28;20749;-87
2023/10/29 09:03:53;;;;;;;4.88;1.00;;;14.00;99.90;;;;;;5015417;28;20060;-88
2023/10/29 09:06:20;;;;;;;2.63;0.80;;;14.10;99.90;;;;;;5017623;28;20111;-86
2023/10/29 09:08:46;;;;;;;3.78;1.10;;;14.20;99.90;;;;;;5034314;28;20057;-86
2023/10/29 09:11:14;;;;;;;4.55;1.27;;;14.30;99.90;;;;;;5018267;28;20352;-88
2023/10/29 09:13:41;;;;;;;2.92;0.80;;;14.20;99.90;;;;;;5033008;28;20057;-87
2023/10/29 09:16:09;;;;;;;2.28;1.00;;;14.20;99.90;;;;;;5017721;28;20425;-89
2023/10/29 09:18:35;;;;;;;2.25;0.95;;;14.20;99.90;;;;;;5034145;28;20045;-88
2023/10/29 09:21:01;;;;;;;2.83;1.05;;;14.10;99.90;;;;;;5018385;28;20417;-88
2023/10/29 09:23:27;;;;;;;3.33;1.13;;;14.10;99.90;;;;;;5017102;28;20045;-88
2023/10/29 09:25:53;;;;;;;5.22;1.25;;;14.10;99.90;;;;;;5034164;28;20049;-88
2023/10/29 09:28:20;;;;;;;4.75;1.30;;;14.20;99.90;;;;;;5034732;28;20355;-87
2023/10/29 09:30:46;;;;;;;5.32;1.05;;;14.70;99.90;;;;;;5033834;28;20056;-87
2023/10/29 09:33:13;;;;;;;5.22;1.20;;;14.40;99.90;;;;;;5031649;28;20033;-87
2023/10/29 09:35:39;;;;;;;5.80;1.40;;;14.50;99.90;;;;;;5026831;28;20045;-86
2023/10/29 09:38:05;;;;;;;3.72;1.17;;;14.80;99.90;;;;;;5032667;28;20041;-87
2023/10/29 09:40:31;;;;;;;4.00;1.25;;;14.60;99.90;;;;;;5017001;28;20052;-86
2023/10/29 09:43:04;;;;;;;5.28;1.17;;;14.60;99.90;;;;;;5032153;28;20044;-86
2023/10/29 09:45:35;;;;;;;5.05;1.33;;;14.60;99.90;;;;;;5051078;28;20041;-86
2023/10/29 09:48:02;;;;;;;6.47;1.20;;;14.50;99.90;;;;;;5049065;28;20044;-86
2023/10/29 09:50:28;;;;;;;3.90;1.45;;;14.40;99.90;;;;;;5032791;28;20049;-85
2023/10/29 09:52:54;;;;;;;3.60;1.20;;;14.40;99.90;;;;;;5028202;28;20044;-87
2023/10/29 09:55:20;;;;;;;5.05;1.30;;;14.30;99.90;;;;;;5033317;28;20505;-87
2023/10/29 09:57:49;;;;;;;4.93;1.70;;;14.30;99.90;;;;;;5052066;28;20064;-86
2023/10/29 10:00:15;;;;;;;3.80;1.55;;;14.30;99.90;;;;;;5033449;28;20053;-89
2023/10/29 10:02:55;;;;;;;5.45;1.35;;;14.20;99.90;;;;;;5033487;28;20351;-87
2023/10/29 10:05:22;;;;;;;3.15;1.10;;;14.20;99.90;;;;;;5017435;28;20029;-88
2023/10/29 10:07:48;;;;;;;5.55;1.67;;;14.30;99.90;;;;;;5033932;28;20045;-86
2023/10/29 10:10:15;;;;;;;9.48;1.80;;;14.30;99.90;;;;;;5033392;28;20044;-86
2023/10/29 10:12:49;;;;;;;6.43;1.75;;;14.20;99.90;;;;;;5030759;28;20178;-87
2023/10/29 10:15:19;;;;;;;6.60;2.15;;;14.20;99.90;;;;;;5032379;28;20041;-87
2023/10/29 10:17:49;;;;;;;7.80;2.47;;;14.10;99.90;;;;;;5030066;28;20057;-86
2023/10/29 10:20:19;;;;;;;6.40;2.47;;;14.20;99.90;;;;;;5016733;28;20151;-86
2023/10/29 10:22:44;;;;;;;6.13;2.72;;;14.40;99.90;;;;;;5049970;28;20059;-87
2023/10/29 10:25:19;;;;;;;10.75;3.70;;;14.70;99.90;;;;;;5033182;28;20048;-86
2023/10/29 10:27:51;;;;;;;7.00;2.60;;;14.60;99.90;;;;;;5033467;28;20049;-88
2023/10/29 10:30:43;;;;;;;7.20;2.00;;;14.60;99.90;;;;;;5031706;28;20056;-85
2023/10/29 10:33:22;;;;;;;4.32;1.27;;;14.60;99.90;;;;;;5024686;28;20055;-84
2023/10/29 10:35:54;;;;;;;6.45;1.70;;;14.50;99.90;;;;;;5032845;28;20052;-85
2023/10/29 10:38:20;;;;;;;;;;;14.50;99.90;;;;;;5017157;28;20075;-87
2023/10/29 10:40:47;;;;;;;5.75;2.22;;;14.50;99.90;;;;;;5032464;28;19921;-85
2023/10/29 10:43:19;;;;;;;4.95;1.35;;;14.40;99.90;;;;;;5031888;28;20131;-87
2023/10/29 10:45:49;;;;;;;;;;;14.40;99.90;;;;;;5031555;28;20483;-86
2023/10/29 10:48:16;;;;;;;3.85;1.20;;;14.50;99.90;;;;;;5012217;28;19931;-87
2023/10/29 10:50:43;;;;;;;6.15;1.80;;;14.60;99.90;;;;;;4995857;28;20049;-85
2023/10/29 10:53:09;;;;;;;3.85;1.42;;;14.60;99.90;;;;;;4999941;28;20886;-85
2023/10/29 10:55:36;;;;;;;4.63;1.40;;;14.60;99.90;;;;;;5031702;28;20045;-87
2023/10/29 10:58:02;;;;;;;6.07;1.38;;;14.70;99.90;;;;;;5031425;28;20088;-85
2023/10/29 11:00:32;;;;;;;5.30;1.20;;;14.60;99.90;;;;;;5013868;28;20091;-86
2023/10/29 11:02:59;;;;;;;4.95;1.52;;;14.60;99.90;;;;;;5030598;28;20771;-84
2023/10/29 11:05:30;;;;;;;4.00;1.40;;;14.60;99.90;;;;;;5032251;28;20859;-88
2023/10/29 11:07:56;;;;;;;3.92;1.40;;;14.60;99.90;;;;;;5014774;28;20040;-84
2023/10/29 11:10:25;;;;;;;5.03;1.52;;;14.50;99.90;;;;;;5015100;28;20047;-86
2023/10/29 11:12:51;;;;;;;6.47;1.45;;;14.40;99.90;;;;;;5030145;28;20048;-85
2023/10/29 11:15:22;;;;;;;4.60;1.38;;;14.40;99.90;;;;;;5029176;28;20060;-84
2023/10/29 11:18:01;;;;;;;5.22;1.30;;;14.50;99.90;;;;;;5031008;28;20049;-85
2023/10/29 11:20:39;;;;;;;5.85;1.35;;;14.50;99.90;;;;;;5031063;28;20076;-85
2023/10/29 11:23:08;;;;;;;4.90;1.40;;;14.70;99.90;;;;;;5047348;28;20503;-85
2023/10/29 11:25:34;;;;;;;4.13;1.13;;;14.90;99.90;;;;;;5011261;28;20057;-85
2023/10/29 11:28:01;;;;;;;3.08;0.82;;;14.90;99.90;;;;;;5030231;28;20066;-84
2023/10/29 11:30:30;;;;;;;4.40;1.20;;;14.90;99.90;;;;;;5029528;28;20071;-86
2023/10/29 11:33:17;;;;;;;6.22;1.25;;;15.00;99.90;;;;;;5028532;28;20053;-85
2023/10/29 11:35:43;;;;;;;6.15;1.67;;;15.00;99.90;;;;;;5031080;28;20534;-85
2023/10/29 11:38:30;;;;;;;4.45;1.23;;;15.00;99.90;;;;;;5029668;28;20049;-86
2023/10/29 11:40:59;;;;;;;4.95;1.10;;;15.00;99.90;;;;;;5030331;28;20087;-85
2023/10/29 11:43:25;;;;;;;7.70;1.23;;;15.00;99.90;;;;;;5048434;28;20102;-86
2023/10/29 11:46:01;;;;;;;6.40;1.85;;;15.00;99.90;;;;;;5028241;28;20186;-85
2023/10/29 11:48:31;;;;;;;6.80;1.42;;;14.90;99.90;;;;;;5030168;28;20099;-85
2023/10/29 11:51:08;;;;;;;3.10;1.20;;;14.80;99.90;;;;;;5030872;28;20045;-86
2023/10/29 11:53:35;;;;;;;3.50;1.00;;;14.80;99.90;;;;;;5030106;28;20053;-87
2023/10/29 11:56:04;;;;;;;3.42;1.10;;;14.70;99.90;;;;;;5029802;28;20144;-86
2023/10/29 11:58:30;;;;;;;4.70;0.90;;;14.70;99.90;;;;;;5030493;28;20415;-86
2023/10/29 12:00:56;;;;;;;4.70;1.13;;;14.70;99.90;;;;;;5030048;28;20037;-86
2023/10/29 12:03:22;;;;;;;6.35;1.48;;;14.70;99.90;;;;;;5029911;28;20037;-85
2023/10/29 12:05:57;;;;;;;6.80;1.00;;;14.80;99.90;;;;;;5030113;28;20095;-88
2023/10/29 12:08:24;;;;;;;7.22;1.60;;;14.80;99.90;;;;;;5013372;28;20041;-84
2023/10/29 12:10:55;;;;;;;5.30;1.70;;;14.70;99.90;;;;;;5029499;28;20083;-85
2023/10/29 12:13:21;;;;;;;5.28;1.15;;;14.80;99.90;;;;;;5029426;28;20120;-85
2023/10/29 12:15:49;;;;;;;6.45;1.20;;;14.80;99.90;;;;;;5029806;28;20045;-85
2023/10/29 12:18:22;;;;;;;3.85;1.33;;;14.80;99.90;;;;;;5012864;28;20162;-86
2023/10/29 12:20:49;;;;;;;4.13;1.30;;;15.10;99.90;;;;;;5020783;28;20124;-87
2023/10/29 12:23:15;;;;;;;5.80;1.42;;;14.60;99.90;;;;;;5045737;28;20045;-88
2023/10/29 12:25:43;;;;;;;5.80;1.42;;;14.90;99.90;;;;;;5030500;28;20052;-88
2023/10/29 12:28:09;;;;;;;6.57;1.35;;;14.70;99.90;;;;;;5029290;28;20466;-86
2023/10/29 12:30:49;;;;;;;4.50;1.40;;;14.80;99.90;;;;;;5029609;28;20140;-85
2023/10/29 12:33:26;;;;;;;5.32;1.00;;;14.70;99.90;;;;;;5029874;28;20112;-86
2023/10/29 12:35:54;;;;;;;3.65;1.27;;;14.60;99.90;;;;;;5029930;28;20120;-87
2023/10/29 12:38:21;;;;;;;5.35;1.50;;;14.60;99.90;;;;;;5029392;28;20059;-87
2023/10/29 12:41:05;;;;;;;4.50;0.93;;;14.80;99.90;;;;;;5030310;28;20055;-86
2023/10/29 12:43:36;;;;;;;4.78;1.20;;;14.50;99.90;;;;;;5029402;28;20055;-86
2023/10/29 12:46:07;;;;;;;4.75;1.27;;;14.50;99.90;;;;;;5028842;28;20045;-86
2023/10/29 12:48:34;;;;;;;3.72;1.10;;;14.40;99.90;;;;;;5013970;28;20072;-88